Time;durP1;ratioP1;P1;durP2;ratioP2;P2;SDS_P1;SDS_P2;PMS_P1;PMS_P2;Temp;Humidity;BMP_temperature;BMP_pressure;BME280_temperature;BME280_humidity;BME280_pressure;Samples;Min_cycle;Max_cycle;Signal;HPM_P1;HPM_P2
2021/06/22 00:01:38;;;;;;;7.55;5.35;;;;;;;23.83;67.08;99483.31;5109486;28;20339;-67
2021/06/22 00:04:04;;;;;;;6.63;5.13;;;;;;;23.79;67.74;99487.59;5112375;28;20343;-66
2021/06/22 00:06:29;;;;;;;10.48;5.72;;;;;;;23.84;67.86;99487.63;5109136;28;20035;-66
2021/06/22 00:08:55;;;;;;;6.20;5.18;;;;;;;23.82;67.56;99478.97;5106121;28;20024;-68
2021/06/22 00:11:21;;;;;;;7.65;5.47;;;;;;;23.80;67.66;99483.00;5101513;28;20065;-68
2021/06/22 00:13:46;;;;;;;7.75;5.40;;;;;;;23.71;67.56;99489.94;5101089;28;20045;-67
2021/06/22 00:16:12;;;;;;;6.63;5.38;;;;;;;23.77;67.42;99486.22;5102167;28;20252;-68
2021/06/22 00:18:37;;;;;;;8.63;5.20;;;;;;;23.77;67.14;99481.63;5104033;28;20210;-66
2021/06/22 00:21:03;;;;;;;6.78;5.30;;;;;;;23.60;67.23;99477.38;5113443;28;20097;-66
2021/06/22 00:23:28;;;;;;;8.20;5.88;;;;;;;23.48;67.58;99478.31;5103462;28;20047;-68
2021/06/22 00:25:54;;;;;;;9.32;5.80;;;;;;;23.47;67.70;99467.75;5118317;28;20232;-66
2021/06/22 00:28:20;;;;;;;8.88;6.03;;;;;;;23.38;68.43;99474.66;5122450;28;20028;-66
2021/06/22 00:30:45;;;;;;;7.80;5.93;;;;;;;23.44;68.50;99466.38;5122713;28;20032;-66
2021/06/22 00:33:11;;;;;;;6.55;5.47;;;;;;;23.55;67.63;99464.63;5113987;28;20024;-68
2021/06/22 00:35:36;;;;;;;6.95;5.65;;;;;;;23.47;68.21;99479.38;5106793;28;20089;-66
2021/06/22 00:38:02;;;;;;;8.65;5.80;;;;;;;23.32;68.79;99481.06;5114386;28;20023;-68
2021/06/22 00:40:27;;;;;;;10.57;6.90;;;;;;;23.41;68.24;99483.06;5109813;28;20047;-67
2021/06/22 00:42:53;;;;;;;16.60;9.38;;;;;;;23.30;68.90;99483.22;5114965;28;22090;-66
2021/06/22 00:45:32;;;;;;;27.67;14.10;;;;;;;23.34;68.70;99495.97;5108553;28;20023;-68
2021/06/22 00:47:58;;;;;;;42.50;20.45;;;;;;;23.18;69.37;99492.25;5109562;28;20043;-68
2021/06/22 00:50:24;;;;;;;31.38;15.30;;;;;;;23.38;68.61;99482.75;5097769;28;20032;-68
2021/06/22 00:52:50;;;;;;;26.05;12.75;;;;;;;23.28;69.01;99475.34;5114013;28;20038;-66
2021/06/22 00:55:28;;;;;;;26.45;11.40;;;;;;;23.21;69.17;99469.31;5110132;28;20217;-67
2021/06/22 00:57:57;;;;;;;24.65;10.85;;;;;;;23.13;69.71;99472.47;5101662;28;20027;-68
2021/06/22 01:00:23;;;;;;;12.63;8.90;;;;;;;23.30;68.82;99473.22;5100974;28;20257;-68
2021/06/22 01:02:48;;;;;;;31.17;13.75;;;;;;;23.17;69.32;99479.00;5103597;28;20036;-68
2021/06/22 01:05:14;;;;;;;45.35;18.65;;;;;;;22.87;70.51;99482.06;5103603;28;20191;-67
2021/06/22 01:07:39;;;;;;;37.70;16.25;;;;;;;22.75;71.17;99481.31;5109914;28;20041;-68
2021/06/22 01:10:06;;;;;;;30.33;12.32;;;;;;;22.37;72.73;99493.69;5115357;28;21692;-67
2021/06/22 01:12:31;;;;;;;24.98;11.23;;;;;;;22.05;74.40;99487.22;5108016;28;20321;-67
2021/06/22 01:14:57;;;;;;;14.85;9.25;;;;;;;22.08;74.60;99484.03;5105839;28;20034;-66
2021/06/22 01:17:22;;;;;;;12.88;8.02;;;;;;;22.46;72.95;99494.09;5105973;28;20028;-66
2021/06/22 01:19:47;;;;;;;14.23;7.15;;;;;;;22.46;72.84;99476.03;5110459;28;20022;-66
2021/06/22 01:22:13;;;;;;;10.85;6.60;;;;;;;22.50;72.31;99492.56;5106634;28;20043;-66
2021/06/22 01:24:39;;;;;;;10.23;6.45;;;;;;;22.44;72.46;99488.13;5104158;28;20213;-68
2021/06/22 01:27:04;;;;;;;13.85;6.93;;;;;;;22.42;72.44;99485.69;5106308;28;20089;-68
2021/06/22 01:29:30;;;;;;;10.23;6.25;;;;;;;22.30;72.73;99477.69;5112715;28;20023;-66
2021/06/22 01:31:57;;;;;;;10.68;6.10;;;;;;;22.52;72.16;99491.25;5116012;28;20028;-68
2021/06/22 01:34:28;;;;;;;9.48;6.43;;;;;;;22.52;71.79;99491.25;5111143;28;20129;-66
2021/06/22 01:36:54;;;;;;;7.25;5.90;;;;;;;22.73;71.20;99486.97;5116899;28;20046;-66
2021/06/22 01:39:20;;;;;;;7.75;5.82;;;;;;;22.61;71.43;99480.84;5105261;28;20023;-66
2021/06/22 01:41:46;;;;;;;6.65;5.95;;;;;;;22.61;71.32;99472.75;5122954;28;20054;-66
2021/06/22 01:44:12;;;;;;;8.50;5.82;;;;;;;22.75;70.47;99473.22;5108859;28;20036;-66
2021/06/22 01:46:38;;;;;;;11.20;6.47;;;;;;;22.51;71.35;99459.09;5111908;28;20031;-66
2021/06/22 01:49:04;;;;;;;10.85;6.00;;;;;;;22.52;71.55;99466.13;5125636;28;20225;-67
2021/06/22 01:51:29;;;;;;;23.50;9.48;;;;;;;22.73;70.63;99453.75;5125440;28;20023;-68
2021/06/22 01:53:58;;;;;;;16.85;9.07;;;;;;;22.92;69.87;99455.19;5124135;28;20098;-68
2021/06/22 01:56:26;;;;;;;20.55;10.10;;;;;;;22.89;69.99;99452.97;5109057;28;20028;-66
2021/06/22 01:58:52;;;;;;;20.55;10.02;;;;;;;22.83;70.04;99445.84;5109356;28;20027;-66
2021/06/22 02:01:18;;;;;;;17.08;8.95;;;;;;;22.71;70.72;99448.63;5112217;28;20039;-66
2021/06/22 02:03:43;;;;;;;18.42;8.10;;;;;;;22.75;70.43;99440.84;5112533;28;20321;-66
2021/06/22 02:06:09;;;;;;;12.43;7.70;;;;;;;;;;5109174;28;20031;-66
2021/06/22 02:08:34;;;;;;;12.25;6.82;;;;;;;22.69;70.37;99429.16;5087629;28;20221;-66
2021/06/22 02:11:00;;;;;;;12.93;7.25;;;;;;;22.61;71.25;99434.97;5108477;28;20052;-66
2021/06/22 02:13:27;;;;;;;15.10;8.07;;;;;;;22.54;71.79;99431.63;5108236;28;20020;-68
2021/06/22 02:15:53;;;;;;;12.90;8.38;;;;;;;22.52;71.69;99425.66;5104116;28;20312;-68
2021/06/22 02:18:19;;;;;;;10.32;7.60;;;;;;;22.41;72.17;99435.50;5084597;28;20032;-66
2021/06/22 02:20:44;;;;;;;16.20;9.20;;;;;;;22.38;72.67;99433.28;5115016;28;20018;-66
2021/06/22 02:23:10;;;;;;;21.70;11.25;;;;;;;22.70;71.37;99430.78;5105930;28;20046;-67
2021/06/22 02:25:36;;;;;;;47.20;19.50;;;;;;;22.75;71.07;99430.03;5108721;28;20035;-66
2021/06/22 02:28:14;;;;;;;52.92;19.45;;;;;;;22.61;71.53;99438.50;5113473;28;20031;-68
2021/06/22 02:30:40;;;;;;;37.80;15.40;;;;;;;22.47;72.06;99437.19;5109845;28;20043;-68
2021/06/22 02:33:07;;;;;;;30.02;13.98;;;;;;;22.49;71.91;99439.66;5114608;28;20027;-68
2021/06/22 02:35:33;;;;;;;18.10;10.00;;;;;;;22.22;72.76;99434.94;5114595;28;20023;-68
2021/06/22 02:37:59;;;;;;;17.90;8.98;;;;;;;22.04;73.72;99435.16;5120833;28;20055;-68
2021/06/22 02:40:26;;;;;;;18.55;8.68;;;;;;;22.16;73.13;99438.59;5110924;28;20313;-66
2021/06/22 02:42:52;;;;;;;18.52;8.13;;;;;;;22.37;72.12;99439.75;5108356;28;20054;-67
2021/06/22 02:45:19;;;;;;;14.75;8.40;;;;;;;22.41;71.77;99440.06;5123326;28;20027;-68
2021/06/22 02:47:45;;;;;;;23.08;11.10;;;;;;;22.58;71.13;99433.59;5120530;28;20384;-67
2021/06/22 02:50:12;;;;;;;35.15;14.88;;;;;;;22.55;70.78;99446.75;5085302;28;20260;-68
2021/06/22 02:52:38;;;;;;;19.38;10.73;;;;;;;22.61;70.43;99456.56;5118739;28;20097;-68
2021/06/22 02:55:05;;;;;;;16.13;8.20;;;;;;;22.53;70.71;99447.00;5094832;28;20027;-68
2021/06/22 02:57:31;;;;;;;15.50;7.70;;;;;;;22.46;70.69;99435.56;5115454;28;20041;-67
2021/06/22 02:59:56;;;;;;;17.80;6.47;;;;;;;22.51;70.79;99443.75;5112140;28;20016;-66
2021/06/22 03:02:22;;;;;;;15.57;7.45;;;;;;;22.53;70.64;99452.41;5107814;28;20039;-68
2021/06/22 03:04:47;;;;;;;11.88;7.97;;;;;;;22.44;71.27;99437.69;5113518;28;20019;-66
2021/06/22 03:07:13;;;;;;;16.75;7.80;;;;;;;22.50;71.50;99435.88;5109802;28;20351;-68
2021/06/22 03:09:38;;;;;;;11.40;7.47;;;;;;;22.56;71.17;99449.22;5107222;28;20024;-66
2021/06/22 03:12:04;;;;;;;14.80;7.53;;;;;;;22.57;71.45;99455.44;5113084;28;20080;-66
2021/06/22 03:14:30;;;;;;;20.13;8.48;;;;;;;22.63;70.92;99443.63;5103764;28;20016;-68
2021/06/22 03:16:55;;;;;;;23.85;11.00;;;;;;;22.76;70.85;99456.78;5102511;28;20057;-68
2021/06/22 03:19:21;;;;;;;43.00;18.52;;;;;;;22.68;71.26;99456.38;5105760;28;20024;-66
2021/06/22 03:21:47;;;;;;;50.40;18.73;;;;;;;22.71;71.00;99459.41;5111097;28;20056;-66
2021/06/22 03:24:15;;;;;;;40.10;17.10;;;;;;;22.77;70.89;99460.28;5112870;28;20046;-67
2021/06/22 03:26:42;;;;;;;30.48;15.27;;;;;;;22.69;71.16;99464.25;5112990;28;20024;-68
2021/06/22 03:29:08;;;;;;;35.40;15.95;;;;;;;22.67;71.26;99466.38;5093280;28;20193;-67
2021/06/22 03:31:34;;;;;;;32.55;14.57;;;;;;;22.56;72.16;99470.78;5107023;28;20413;-68
2021/06/22 03:34:00;;;;;;;21.80;10.88;;;;;;;22.61;71.87;99457.38;5110919;28;20032;-67
2021/06/22 03:36:26;;;;;;;20.67;9.48;;;;;;;22.75;71.41;99454.34;5114045;28;20397;-68
2021/06/22 03:38:51;;;;;;;23.85;9.60;;;;;;;22.84;70.83;99451.00;5107569;28;20032;-66
2021/06/22 03:41:17;;;;;;;13.35;8.48;;;;;;;22.96;70.81;99439.28;5101382;28;20071;-68
2021/06/22 03:43:43;;;;;;;13.00;7.28;;;;;;;23.10;70.01;99440.56;5105237;28;20027;-66
2021/06/22 03:46:08;;;;;;;15.25;8.25;;;;;;;23.30;69.62;99446.19;5109546;28;20035;-66
2021/06/22 03:48:34;;;;;;;17.13;9.73;;;;;;;23.25;69.45;99451.53;5112025;28;20023;-68
2021/06/22 03:51:00;;;;;;;34.92;13.88;;;;;;;22.92;70.49;99463.28;5113575;28;20034;-66
2021/06/22 03:53:25;;;;;;;35.53;15.20;;;;;;;23.16;70.06;99463.84;5108124;28;20080;-68
2021/06/22 03:55:51;;;;;;;25.42;12.43;;;;;;;23.34;69.19;99471.66;5112688;28;20028;-66
2021/06/22 03:58:16;;;;;;;29.27;14.68;;;;;;;23.24;69.80;99466.94;5113980;28;20022;-68
2021/06/22 04:00:42;;;;;;;32.40;15.52;;;;;;;23.35;69.35;99465.16;5112800;28;20065;-66
2021/06/22 04:03:08;;;;;;;27.58;12.70;;;;;;;23.28;69.39;99459.16;5108093;28;20031;-68
2021/06/22 04:05:33;;;;;;;20.00;11.20;;;;;;;23.29;69.77;99470.78;5110713;28;20035;-67
2021/06/22 04:08:00;;;;;;;16.75;9.70;;;;;;;23.35;69.92;99472.47;5109733;28;20024;-68
2021/06/22 04:10:27;;;;;;;19.27;8.63;;;;;;;23.45;69.57;99475.28;5115864;28;20035;-68
2021/06/22 04:12:53;;;;;;;15.93;7.78;;;;;;;23.38;69.53;99471.97;5121457;28;20060;-66
2021/06/22 04:15:19;;;;;;;12.23;8.23;;;;;;;23.68;68.84;99483.16;5117298;28;20032;-67
2021/06/22 04:17:45;;;;;;;14.93;7.75;;;;;;;23.84;68.54;99487.63;5106964;28;20028;-66
2021/06/22 04:20:11;;;;;;;11.68;7.88;;;;;;;24.06;67.45;99484.09;5116449;28;20039;-66
2021/06/22 04:22:37;;;;;;;12.30;7.90;;;;;;;24.29;66.63;99477.56;5122820;28;20039;-66
2021/06/22 04:25:04;;;;;;;14.05;8.25;;;;;;;24.30;66.27;99484.59;5122730;28;20034;-68
2021/06/22 04:27:29;;;;;;;17.00;7.57;;;;;;;24.35;66.63;99496.28;5122917;28;20039;-68
2021/06/22 04:29:55;;;;;;;18.30;8.48;;;;;;;24.62;65.32;99498.13;5122637;28;20035;-66
2021/06/22 04:32:20;;;;;;;13.23;7.75;;;;;;;24.65;65.00;99503.00;5120208;28;20028;-68
2021/06/22 04:34:46;;;;;;;25.20;12.52;;;;;;;24.53;65.89;99497.78;5113391;28;20275;-68
2021/06/22 04:37:11;;;;;;;18.27;10.57;;;;;;;24.52;65.69;99498.84;5114910;28;20047;-68
2021/06/22 04:39:37;;;;;;;18.67;9.10;;;;;;;24.78;65.22;99497.16;5105439;28;20024;-68
2021/06/22 04:42:02;;;;;;;20.15;9.15;;;;;;;25.00;64.67;99503.31;5111048;28;20156;-66
2021/06/22 04:44:28;;;;;;;28.45;11.82;;;;;;;25.30;63.52;99494.50;5105691;28;20076;-68
2021/06/22 04:46:53;;;;;;;16.70;9.07;;;;;;;25.60;62.52;99491.09;5110296;28;20035;-67
2021/06/22 04:49:19;;;;;;;19.33;10.80;;;;;;;25.90;61.57;99493.09;5102330;28;20028;-66
2021/06/22 04:51:44;;;;;;;16.77;9.43;;;;;;;26.07;60.83;99491.00;5106295;28;20035;-66
2021/06/22 04:54:11;;;;;;;18.02;8.75;;;;;;;26.35;59.54;99500.53;5111179;28;20023;-66
2021/06/22 04:56:38;;;;;;;25.10;11.30;;;;;;;26.71;58.80;99492.38;5098674;28;20020;-66
2021/06/22 04:59:03;;;;;;;25.25;13.25;;;;;;;27.13;57.07;99499.41;5109479;28;20157;-67
2021/06/22 05:01:29;;;;;;;16.45;9.32;;;;;;;27.29;57.02;99495.53;5117022;28;20032;-67
2021/06/22 05:03:55;;;;;;;13.27;8.10;;;;;;;27.60;55.94;99499.78;5125472;28;20095;-68
2021/06/22 05:06:21;;;;;;;20.38;9.07;;;;;;;27.83;55.39;99505.63;5123851;28;20062;-68
2021/06/22 05:08:46;;;;;;;15.73;7.72;;;;;;;28.16;54.23;99501.38;5113469;28;20314;-66
2021/06/22 05:11:12;;;;;;;15.38;7.40;;;;;;;28.27;53.59;99495.59;5109401;28;20060;-66
2021/06/22 05:13:38;;;;;;;13.23;6.03;;;;;;;28.66;52.08;99504.78;5105078;28;20031;-68
2021/06/22 05:16:04;;;;;;;11.15;6.70;;;;;;;28.92;51.30;99504.28;5105789;28;20088;-68
2021/06/22 05:18:29;;;;;;;12.50;7.40;;;;;;;29.26;50.58;99508.03;5104382;28;20096;-66
2021/06/22 05:20:55;;;;;;;10.00;6.05;;;;;;;29.52;49.69;99493.81;5109768;28;20032;-66
2021/06/22 05:23:20;;;;;;;9.90;6.13;;;;;;;29.54;49.76;99491.63;5111984;28;20039;-66
2021/06/22 05:25:46;;;;;;;9.05;6.80;;;;;;;29.88;48.25;99494.16;5116485;28;20036;-66
2021/06/22 05:28:11;;;;;;;10.57;6.32;;;;;;;30.05;48.37;99493.66;5118886;28;20020;-66
2021/06/22 05:30:37;;;;;;;10.15;6.43;;;;;;;30.09;47.75;99489.22;5109388;28;20077;-66
2021/06/22 05:33:03;;;;;;;9.13;5.63;;;;;;;30.16;47.73;99486.91;5123228;28;20047;-66
2021/06/22 05:35:28;;;;;;;7.65;6.22;;;;;;;30.34;47.40;99493.50;5124986;28;20034;-68
2021/06/22 05:37:54;;;;;;;11.68;6.22;;;;;;;30.72;46.45;99491.50;5115003;28;20034;-68
2021/06/22 05:40:20;;;;;;;11.70;6.20;;;;;;;30.98;45.87;99488.28;5109497;28;20271;-66
2021/06/22 05:42:45;;;;;;;10.15;5.90;;;;;;;31.11;44.67;99496.50;5113796;28;20205;-68
2021/06/22 05:45:11;;;;;;;13.70;5.82;;;;;;;31.35;44.37;99499.09;5104455;28;20095;-68
2021/06/22 05:47:37;;;;;;;8.35;4.55;;;;;;;31.49;44.01;99501.00;5113935;28;20032;-67
2021/06/22 05:50:03;;;;;;;6.93;5.40;;;;;;;31.61;43.93;99496.63;5119335;28;20038;-68
2021/06/22 05:52:29;;;;;;;8.55;5.60;;;;;;;31.57;43.29;99490.13;5123937;28;20065;-66
2021/06/22 05:54:54;;;;;;;8.48;5.00;;;;;;;31.64;42.53;99496.00;5123526;28;20028;-66
2021/06/22 05:57:20;;;;;;;7.72;5.20;;;;;;;31.62;42.69;99495.50;5124831;28;20031;-68
2021/06/22 05:59:45;;;;;;;8.88;4.80;;;;;;;32.06;41.35;99508.50;5113145;28;20019;-66
2021/06/22 06:02:10;;;;;;;12.32;4.88;;;;;;;32.59;40.59;99501.50;5108823;28;20032;-67
2021/06/22 06:04:36;;;;;;;7.65;4.45;;;;;;;32.78;40.05;99509.53;5113528;28;20358;-66
2021/06/22 06:07:01;;;;;;;6.22;4.50;;;;;;;33.11;39.34;99505.34;5113839;28;20027;-67
2021/06/22 06:09:27;;;;;;;7.60;5.13;;;;;;;33.12;38.54;99501.47;5109037;28;20357;-67
2021/06/22 06:11:53;;;;;;;13.32;5.07;;;;;;;33.36;38.29;99511.28;5118394;28;20363;-67
2021/06/22 06:14:19;;;;;;;7.93;4.72;;;;;;;33.58;37.78;99512.00;5095713;28;20035;-66
2021/06/22 06:16:44;;;;;;;7.82;5.07;;;;;;;33.81;37.09;99509.97;5105325;28;20023;-68
2021/06/22 06:19:10;;;;;;;10.20;4.85;;;;;;;33.46;38.30;99506.31;5117133;28;20090;-68
2021/06/22 06:21:38;;;;;;;8.70;4.75;;;;;;;33.50;38.40;99501.00;5111355;28;20040;-66
2021/06/22 06:24:05;;;;;;;6.45;4.70;;;;;;;33.59;37.26;99488.91;5112277;28;20020;-66
2021/06/22 06:26:36;;;;;;;7.10;4.25;;;;;;;33.93;36.19;99495.59;5111207;28;20050;-67
2021/06/22 06:29:10;;;;;;;6.32;4.35;;;;;;;33.77;37.21;99499.91;5118194;28;20229;-68
2021/06/22 06:31:36;;;;;;;10.38;4.07;;;;;;;33.58;37.51;99501.00;5122791;28;20046;-68
2021/06/22 06:34:01;;;;;;;7.97;4.53;;;;;;;33.89;36.51;99495.44;5119628;28;20213;-67
2021/06/22 06:36:27;;;;;;;6.90;4.18;;;;;;;33.87;36.87;99500.44;5118796;27;20035;-68
2021/06/22 06:38:52;;;;;;;8.60;4.55;;;;;;;34.13;35.97;99499.63;5117622;28;20023;-69
2021/06/22 06:41:18;;;;;;;6.65;4.20;;;;;;;34.34;35.06;99500.63;5116529;28;20027;-66
2021/06/22 06:43:43;;;;;;;9.00;4.55;;;;;;;34.44;34.66;99502.25;5121489;27;20255;-66
2021/06/22 06:46:09;;;;;;;5.35;4.70;;;;;;;34.29;35.33;99511.75;5123478;28;20039;-66
2021/06/22 06:48:34;;;;;;;9.15;5.22;;;;;;;33.69;36.24;99514.44;5123321;28;20051;-68
2021/06/22 06:51:00;;;;;;;7.35;5.18;;;;;;;33.81;36.13;99515.44;5123152;28;20035;-66
2021/06/22 06:53:25;;;;;;;5.78;4.78;;;;;;;33.77;36.66;99513.63;5122789;28;20030;-68
2021/06/22 06:55:50;;;;;;;6.00;3.97;;;;;;;33.05;37.39;99514.03;5123554;28;20036;-68
2021/06/22 06:58:16;;;;;;;6.90;4.75;;;;;;;32.39;39.25;99516.53;5122953;28;20362;-66
2021/06/22 07:00:42;;;;;;;6.93;4.45;;;;;;;32.66;38.37;99519.13;5104706;28;20027;-68
2021/06/22 07:03:07;;;;;;;4.60;4.20;;;;;;;32.83;37.12;99523.94;5123065;28;20229;-66
2021/06/22 07:05:34;;;;;;;7.32;4.22;;;;;;;32.87;37.08;99515.88;5122660;27;20057;-68
2021/06/22 07:08:00;;;;;;;9.50;4.85;;;;;;;33.09;37.40;99521.31;5122984;28;20035;-67
2021/06/22 07:10:29;;;;;;;8.35;4.10;;;;;;;33.45;36.99;99526.66;5122593;27;20043;-68
2021/06/22 07:12:57;;;;;;;9.23;4.47;;;;;;;33.25;36.96;99529.94;5122439;28;20044;-66
2021/06/22 07:15:22;;;;;;;10.80;4.30;;;;;;;33.11;37.54;99527.28;5122901;28;20339;-68
2021/06/22 07:17:48;;;;;;;7.82;4.35;;;;;;;32.12;40.46;99509.19;5122503;28;20044;-66
2021/06/22 07:20:15;;;;;;;8.98;4.53;;;;;;;32.32;40.25;99513.44;5122510;28;20225;-66
2021/06/22 07:22:40;;;;;;;4.38;3.85;;;;;;;32.56;38.95;99504.88;5122856;27;20042;-67
2021/06/22 07:25:07;;;;;;;9.07;4.10;;;;;;;32.54;39.74;99516.16;5122954;28;20023;-66
2021/06/22 07:27:32;;;;;;;8.65;4.90;;;;;;;32.95;38.87;99518.66;5122583;28;20027;-68
2021/06/22 07:29:58;;;;;;;6.13;4.53;;;;;;;33.15;38.11;99511.00;5122569;28;20323;-67
2021/06/22 07:32:23;;;;;;;8.02;4.38;;;;;;;33.75;36.76;99515.91;5122896;28;20061;-68
2021/06/22 07:34:49;;;;;;;10.32;5.13;;;;;;;34.18;36.56;99513.19;5120566;28;20046;-68
2021/06/22 07:37:14;;;;;;;9.57;6.75;;;;;;;34.56;36.18;99505.94;5122837;28;20028;-68
2021/06/22 07:39:40;;;;;;;7.38;5.22;;;;;;;34.91;35.23;99494.06;5122343;28;20023;-68
2021/06/22 07:42:05;;;;;;;8.52;5.63;;;;;;;34.66;35.09;99498.47;5122338;28;20035;-68
2021/06/22 07:44:31;;;;;;;7.60;4.82;;;;;;;35.20;34.40;99486.63;5122269;28;20054;-68
2021/06/22 07:46:56;;;;;;;7.28;4.57;;;;;;;35.37;35.03;99501.47;5122417;28;20214;-68
2021/06/22 07:49:22;;;;;;;10.13;5.05;;;;;;;35.64;34.48;99502.94;5122183;28;20032;-67
2021/06/22 07:51:47;;;;;;;6.85;4.75;;;;;;;35.79;33.05;99500.41;5104038;28;20083;-68
2021/06/22 07:54:14;;;;;;;9.07;6.18;;;;;;;35.77;33.61;99510.16;5122059;28;20019;-68
2021/06/22 07:56:40;;;;;;;10.02;5.43;;;;;;;36.16;32.59;99514.41;5122073;28;20036;-68
2021/06/22 07:59:05;;;;;;;13.13;4.90;;;;;;;36.24;32.30;99512.72;5122842;28;20294;-68
2021/06/22 08:01:31;;;;;;;8.52;4.40;;;;;;;35.96;33.39;99513.28;5103833;28;20102;-67
2021/06/22 08:03:56;;;;;;;8.48;4.22;;;;;;;36.20;32.47;99507.06;5121823;28;20055;-67
2021/06/22 08:06:22;;;;;;;8.68;4.68;;;;;;;35.93;33.66;99507.63;5122273;28;20035;-67
2021/06/22 08:08:47;;;;;;;10.93;7.32;;;;;;;35.30;34.11;99507.47;5121799;28;20037;-67
2021/06/22 08:11:13;;;;;;;7.43;5.15;;;;;;;35.28;33.43;99515.25;5121893;28;20048;-67
2021/06/22 08:13:38;;;;;;;6.07;4.60;;;;;;;35.27;34.24;99504.56;5122129;28;20208;-68
2021/06/22 08:16:05;;;;;;;8.68;4.15;;;;;;;35.37;34.28;99518.78;5122024;28;20047;-68
2021/06/22 08:18:32;;;;;;;13.13;4.20;;;;;;;35.87;33.64;99511.72;5103694;28;20209;-68
2021/06/22 08:20:58;;;;;;;7.38;5.00;;;;;;;35.72;34.22;99511.16;5122053;28;20198;-67
2021/06/22 08:23:24;;;;;;;7.97;4.38;;;;;;;35.84;33.51;99515.97;5103497;28;20039;-68
2021/06/22 08:25:52;;;;;;;5.40;4.45;;;;;;;36.28;33.04;99505.38;5122343;28;20214;-68
2021/06/22 08:28:17;;;;;;;8.25;4.80;;;;;;;36.38;33.08;99500.28;5122800;28;20043;-68
2021/06/22 08:30:43;;;;;;;6.38;4.13;;;;;;;35.94;32.36;99504.53;5124969;27;20092;-67
2021/06/22 08:33:08;;;;;;;10.60;4.82;;;;;;;35.89;33.54;99509.44;5126092;28;20029;-68
2021/06/22 08:35:36;;;;;;;5.30;3.50;;;;;;;36.14;32.13;99500.97;5125913;28;20032;-68
2021/06/22 08:38:08;;;;;;;5.65;3.88;;;;;;;36.34;32.02;99515.88;5126002;28;20035;-68
2021/06/22 08:40:34;;;;;;;6.30;3.97;;;;;;;35.95;32.84;99517.16;5107292;28;20102;-67
2021/06/22 08:42:59;;;;;;;10.95;4.38;;;;;;;35.62;33.48;99510.75;5125706;28;20038;-67
2021/06/22 08:45:25;;;;;;;5.72;3.90;;;;;;;35.80;32.76;99521.34;5126007;28;20085;-68
2021/06/22 08:47:51;;;;;;;7.88;4.88;;;;;;;36.14;31.41;99514.75;5126262;28;20032;-67
2021/06/22 08:50:17;;;;;;;11.75;4.72;;;;;;;36.47;30.87;99518.72;5125618;27;20095;-68
2021/06/22 08:52:43;;;;;;;7.85;4.13;;;;;;;36.42;31.87;99514.22;5126083;28;20092;-67
2021/06/22 08:55:25;;;;;;;8.82;4.50;;;;;;;36.34;31.26;99512.31;5125422;28;20035;-67
2021/06/22 08:57:56;;;;;;;10.23;4.05;;;;;;;36.40;32.00;99503.50;5125011;28;20089;-68
2021/06/22 09:00:21;;;;;;;7.10;4.43;;;;;;;36.66;31.45;99505.22;5125651;27;20032;-67
2021/06/22 09:03:11;;;;;;;14.98;4.90;;;;;;;36.55;31.39;99493.81;5125179;28;20071;-67
2021/06/22 09:05:37;;;;;;;8.45;4.13;;;;;;;36.29;31.13;99504.25;5125441;28;20050;-68
2021/06/22 09:08:03;;;;;;;6.90;4.13;;;;;;;36.21;32.47;99500.41;5125288;27;20047;-68
2021/06/22 09:10:31;;;;;;;9.45;4.25;;;;;;;35.93;32.45;99510.38;5125244;28;20217;-67
2021/06/22 09:13:24;;;;;;;10.90;4.60;;;;;;;35.96;32.08;99510.53;5124890;28;20066;-66
2021/06/22 09:15:51;;;;;;;12.20;4.20;;;;;;;36.42;31.09;99501.25;5125266;28;20094;-68
2021/06/22 09:18:31;;;;;;;10.25;4.38;;;;;;;36.59;31.71;99497.50;5125144;28;20244;-68
2021/06/22 09:20:59;;;;;;;8.80;3.65;;;;;;;36.59;30.62;99497.50;5125204;27;20047;-67
2021/06/22 09:23:31;;;;;;;8.10;3.83;;;;;;;36.31;30.29;99491.75;5124940;27;20074;-69
2021/06/22 09:25:57;;;;;;;8.85;3.65;;;;;;;36.04;31.79;99492.31;5125220;28;20051;-69
2021/06/22 09:28:29;;;;;;;9.65;3.53;;;;;;;35.96;31.57;99499.50;5125085;28;20182;-67
2021/06/22 09:31:02;;;;;;;9.82;3.88;;;;;;;36.12;30.43;99491.41;5125333;28;20034;-68
2021/06/22 09:33:48;;;;;;;9.93;4.00;;;;;;;36.05;31.77;99489.19;5124790;28;20039;-68
2021/06/22 09:36:19;;;;;;;6.53;4.03;;;;;;;35.91;30.99;99487.88;5125032;28;20170;-68
2021/06/22 09:38:54;;;;;;;8.93;3.47;;;;;;;35.51;31.37;99483.59;5124626;28;20221;-67
2021/06/22 09:41:22;;;;;;;7.32;3.42;;;;;;;35.35;31.66;99479.78;5124053;28;20032;-68
2021/06/22 09:43:50;;;;;;;6.13;3.92;;;;;;;35.03;32.70;99472.97;5106353;28;20039;-68
2021/06/22 09:46:18;;;;;;;7.97;3.90;;;;;;;35.09;32.23;99470.81;5125033;28;20073;-69
2021/06/22 09:48:56;;;;;;;9.23;4.05;;;;;;;35.13;31.93;99464.31;5106410;28;20035;-68
2021/06/22 09:51:29;;;;;;;11.65;3.83;;;;;;;35.12;31.99;99468.22;5124748;28;20027;-67
2021/06/22 09:53:55;;;;;;;11.88;4.10;;;;;;;34.91;32.02;99459.09;5124476;27;20039;-67
2021/06/22 09:56:24;;;;;;;10.80;3.75;;;;;;;35.02;30.55;99478.78;5124326;28;20043;-68
2021/06/22 09:58:50;;;;;;;9.35;3.45;;;;;;;35.20;30.69;99472.88;5117834;27;20216;-68
2021/06/22 10:01:29;;;;;;;8.00;3.72;;;;;;;35.37;29.67;99468.44;5117817;27;20019;-68
2021/06/22 10:03:56;;;;;;;13.00;4.10;;;;;;;34.93;33.12;99467.81;5115537;27;20053;-67
2021/06/22 10:06:22;;;;;;;5.88;3.20;;;;;;;34.41;32.99;99470.72;5119649;27;20027;-68
2021/06/22 10:08:55;;;;;;;9.43;4.25;;;;;;;34.31;34.19;99451.75;5116578;27;20042;-66
2021/06/22 10:11:35;;;;;;;8.70;4.20;;;;;;;34.12;34.12;99465.84;5117172;27;20109;-67
2021/06/22 10:14:03;;;;;;;8.13;4.20;;;;;;;34.09;33.29;99461.00;5118020;27;20029;-68
2021/06/22 10:16:32;;;;;;;6.50;3.42;;;;;;;34.20;32.95;99465.03;5122809;28;20062;-67
2021/06/22 10:19:02;;;;;;;5.88;3.80;;;;;;;34.31;33.11;99454.50;5120768;27;20054;-68
2021/06/22 10:21:28;;;;;;;7.53;3.47;;;;;;;34.17;33.01;99462.13;5098925;28;20046;-67
2021/06/22 10:23:55;;;;;;;9.25;4.07;;;;;;;34.32;32.47;99452.56;5100811;27;20047;-66
2021/06/22 10:26:23;;;;;;;6.20;4.15;;;;;;;34.14;31.15;99452.59;5116809;27;20035;-68
2021/06/22 10:28:48;;;;;;;8.80;3.95;;;;;;;34.33;32.19;99448.72;5118637;27;20023;-68
2021/06/22 10:31:14;;;;;;;8.82;3.70;;;;;;;34.32;33.55;99445.16;5100458;27;20236;-66
2021/06/22 10:33:39;;;;;;;10.82;4.00;;;;;;;33.99;34.37;99450.34;5115357;27;20221;-68
2021/06/22 10:36:06;;;;;;;10.10;4.32;;;;;;;33.61;34.08;99447.41;5118233;27;20027;-68
2021/06/22 10:38:39;;;;;;;12.18;4.38;;;;;;;33.78;34.54;99441.91;5117291;27;20063;-68
2021/06/22 10:41:05;;;;;;;;;;;;;;;33.82;34.50;99444.84;5120973;27;20057;-68
2021/06/22 10:43:35;;;;;;;8.43;3.60;;;;;;;33.89;33.72;99436.94;5118308;28;19990;-67
2021/06/22 10:46:04;;;;;;;10.73;4.00;;;;;;;34.02;33.63;99438.72;5117247;27;20209;-66
2021/06/22 10:48:48;;;;;;;8.40;4.22;;;;;;;34.05;33.45;99427.06;5118946;28;20296;-68
2021/06/22 10:51:35;;;;;;;5.57;4.03;;;;;;;34.13;34.28;99429.00;5121790;27;20031;-68
2021/06/22 10:54:00;;;;;;;9.10;4.55;;;;;;;34.30;34.99;99427.34;5120738;27;20466;-68
2021/06/22 10:56:28;;;;;;;6.25;4.10;;;;;;;34.08;36.46;99433.84;5118465;27;20035;-68
2021/06/22 10:59:12;;;;;;;11.43;4.35;;;;;;;33.75;34.92;99420.59;5116487;27;20041;-67
2021/06/22 11:01:55;;;;;;;10.75;4.13;;;;;;;33.90;36.30;99425.63;5116875;27;20104;-68
2021/06/22 11:04:24;;;;;;;7.00;3.90;;;;;;;33.74;34.71;99408.00;5117582;27;20052;-66
2021/06/22 11:07:07;;;;;;;7.38;4.15;;;;;;;33.24;37.53;99427.59;5118539;27;20037;-66
2021/06/22 11:09:34;;;;;;;7.40;3.78;;;;;;;33.26;37.24;99421.78;5114928;27;20023;-67
2021/06/22 11:12:20;;;;;;;8.18;4.45;;;;;;;33.10;35.39;99409.66;5117492;27;20084;-68
2021/06/22 11:14:58;;;;;;;14.05;4.68;;;;;;;32.85;37.28;99412.00;5117541;27;20024;-68
2021/06/22 11:17:42;;;;;;;10.30;4.75;;;;;;;32.76;37.32;99415.81;5103653;28;20027;-66
2021/06/22 11:20:15;;;;;;;9.30;4.30;;;;;;;32.81;36.67;99411.00;5115658;27;20027;-66
2021/06/22 11:22:58;;;;;;;;;;;;;;;32.96;36.36;99410.59;5099397;28;20027;-66
2021/06/22 11:25:24;;;;;;;7.78;3.97;;;;;;;33.12;36.08;99404.66;5099142;27;19978;-68
2021/06/22 11:28:07;;;;;;;9.48;4.65;;;;;;;33.28;35.43;99409.38;5118344;27;20055;-67
2021/06/22 11:31:06;;;;;;;10.98;4.20;;;;;;;33.46;33.94;99399.28;5118610;28;20024;-68